Time;durP1;ratioP1;P1;durP2;ratioP2;P2;SDS_P1;SDS_P2;PMS_P1;PMS_P2;Temp;Humidity;BMP_temperature;BMP_pressure;BME280_temperature;BME280_humidity;BME280_pressure;Samples;Min_cycle;Max_cycle;Signal;HPM_P1;HPM_P2
2021/12/04 00:01:55;;;;;;;;;;;;;;;1.74;56.85;99751.19;4440168;32;34166;-79
2021/12/04 00:05:02;;;;;;;;;;;;;;;1.77;56.29;99744.00;4437818;32;35310;-78
2021/12/04 00:07:33;;;;;;;;;;;;;;;1.79;56.13;99742.13;4432515;32;35390;-79
2021/12/04 00:10:03;;;;;;;;;;;;;;;1.72;56.30;99746.06;4434350;32;32534;-79
2021/12/04 00:12:34;;;;;;;;;;;;;;;1.80;56.09;99741.19;4439689;32;34701;-79
2021/12/04 00:15:02;;;;;;;;;;;;;;;1.74;56.28;99733.69;4434062;32;34877;-79
2021/12/04 00:17:30;;;;;;;;;;;;;;;1.60;56.82;99727.59;4436333;32;33042;-79
2021/12/04 00:19:58;;;;;;;;;;;;;;;1.61;56.49;99727.47;4433773;32;34004;-78
2021/12/04 00:22:29;;;;;;;;;;;;;;;1.69;56.54;99729.66;4448020;32;33568;-78
2021/12/04 00:24:57;;;;;;;;;;;;;;;1.72;56.36;99722.47;4415451;32;34875;-79
2021/12/04 00:27:24;;;;;;;;;;;;;;;1.54;56.99;99712.19;4431226;32;34658;-78
2021/12/04 00:29:53;;;;;;;;;;;;;;;1.37;57.49;99713.19;4432077;32;33835;-78
2021/12/04 00:32:32;;;;;;;;;;;;;;;1.41;57.59;99712.06;4421530;32;32867;-79
2021/12/04 00:35:23;;;;;;;;;;;;;;;1.71;56.04;99720.75;4432871;32;35099;-78
2021/12/04 00:51:38;;;;;;;;;;;;;;;1.28;57.30;99715.50;4435089;32;33052;-78
2021/12/04 00:54:12;;;;;;;;;;;;;;;1.02;57.99;99717.00;4433668;32;34336;-78
2021/12/04 00:56:42;;;;;;;;;;;;;;;0.94;58.24;99719.19;4421968;32;35615;-78
2021/12/04 00:59:11;;;;;;;;;;;;;;;1.09;57.84;99717.47;4431049;32;33304;-78
2021/12/04 01:01:39;;;;;;;;;;;;;;;1.02;58.06;99724.00;4419759;32;32347;-78
2021/12/04 01:04:12;;;;;;;;;;;;;;;1.12;57.85;99719.94;4444019;32;32530;-78
2021/12/04 01:06:39;;;;;;;;;;;;;;;1.05;58.38;99724.66;4419954;32;34932;-78
2021/12/04 01:09:08;;;;;;;;;;;;;;;1.16;57.86;99724.94;4430121;32;33922;-78
2021/12/04 01:11:37;;;;;;;;;;;;;;;1.15;57.66;99715.34;4516841;26;32721;-76
2021/12/04 01:14:04;;;;;;;;;;;;;;;1.20;57.20;99710.72;4414930;32;33566;-77
2021/12/04 01:16:31;;;;;;;;;;;;;;;1.12;57.32;99712.09;4428283;32;35361;-78
2021/12/04 01:18:59;;;;;;;;;;;;;;;1.11;57.17;99715.62;4429668;32;34360;-77
2021/12/04 01:21:26;;;;;;;;;;;;;;;0.94;57.46;99713.13;4402449;32;32283;-78
2021/12/04 01:23:55;;;;;;;;;;;;;;;0.74;57.84;99711.63;4427403;32;34250;-77
2021/12/04 01:26:23;;;;;;;;;;;;;;;0.78;57.66;99718.37;4403245;32;34336;-77
2021/12/04 01:28:50;;;;;;;;;;;;;;;0.78;58.00;99718.37;4429878;32;34410;-78
2021/12/04 01:31:18;;;;;;;;;;;;;;;0.75;58.09;99715.94;4429371;32;32787;-77
2021/12/04 01:33:45;;;;;;;;;;;;;;;0.70;58.08;99711.87;4415021;32;33633;-78
2021/12/04 01:36:13;;;;;;;;;;;;;;;0.75;58.11;99710.69;4414701;32;33814;-76
2021/12/04 01:38:41;;;;;;;;;;;;;;;0.56;58.83;99712.63;4415452;32;34809;-76
2021/12/04 01:41:08;;;;;;;;;;;;;;;0.68;58.39;99705.88;4414073;32;32920;-78
2021/12/04 01:43:36;;;;;;;;;;;;;;;0.81;57.63;99707.75;4415182;32;34460;-78
2021/12/04 01:46:03;;;;;;;;;;;;;;;0.71;57.92;99705.72;4414887;32;34487;-76
2021/12/04 01:48:31;;;;;;;;;;;;;;;0.62;58.15;99714.94;4403038;32;35430;-77
2021/12/04 01:50:58;;;;;;;;;;;;;;;0.38;58.45;99710.19;4429606;32;33053;-77
2021/12/04 01:53:26;;;;;;;;;;;;;;;0.35;58.74;99707.72;4402321;32;33758;-77
2021/12/04 01:55:55;;;;;;;;;;;;;;;0.23;58.74;99701.41;4428873;32;34729;-77
2021/12/04 01:58:22;;;;;;;;;;;;;;;0.05;59.71;99696.31;4414388;32;34708;-77
2021/12/04 02:00:50;;;;;;;;;;;;;;;0.38;58.53;99690.09;4402618;32;32427;-76
2021/12/04 02:03:19;;;;;;;;;;;;;;;0.17;59.17;99693.03;4402517;32;33395;-77
2021/12/04 02:05:47;;;;;;;;;;;;;;;0.28;58.85;99698.53;4402749;32;36453;-78
2021/12/04 02:08:15;;;;;;;;;;;;;;;0.19;58.98;99692.03;4414202;32;35157;-78
2021/12/04 02:10:44;;;;;;;;;;;;;;;0.11;59.18;99693.38;4415067;32;32286;-77
2021/12/04 02:13:11;;;;;;;;;;;;;;;0.15;58.84;99687.91;4420733;32;33924;-77
2021/12/04 02:15:39;;;;;;;;;;;;;;;0.28;58.63;99693.31;4401094;32;33707;-77
2021/12/04 02:18:07;;;;;;;;;;;;;;;0.38;58.28;99681.41;4413223;32;34095;-77
2021/12/04 02:20:35;;;;;;;;;;;;;;;0.21;59.21;99673.63;4406623;32;33870;-78
2021/12/04 02:23:03;;;;;;;;;;;;;;;0.13;59.56;99673.22;4406317;32;34231;-77
2021/12/04 02:25:30;;;;;;;;;;;;;;;0.59;57.30;99677.59;4400439;32;34489;-78
2021/12/04 02:27:58;;;;;;;;;;;;;;;0.25;58.30;99667.31;4414499;32;35357;-77
2021/12/04 02:30:26;;;;;;;;;;;;;;;0.30;58.44;99667.91;4413944;32;33074;-77
2021/12/04 02:32:54;;;;;;;;;;;;;;;0.37;58.08;99657.00;4404568;32;33749;-77
2021/12/04 02:35:22;;;;;;;;;;;;;;;0.21;58.24;99657.94;4408488;32;34940;-77
2021/12/04 02:37:49;;;;;;;;;;;;;;;0.18;58.74;99669.41;4415456;32;34787;-77
2021/12/04 02:40:19;;;;;;;;;;;;;;;0.29;58.38;99664.44;4406885;32;32674;-77
2021/12/04 02:42:46;;;;;;;;;;;;;;;0.03;59.02;99661.56;4406119;32;33254;-78
2021/12/04 02:45:13;;;;;;;;;;;;;;;-0.10;59.85;99659.69;4394290;32;34199;-77
2021/12/04 02:47:41;;;;;;;;;;;;;;;0.05;59.02;99655.31;4390421;32;34750;-77
2021/12/04 02:50:10;;;;;;;;;;;;;;;0.17;58.48;99653.78;4400090;32;31371;-78
2021/12/04 02:52:37;;;;;;;;;;;;;;;0.17;58.12;99644.19;4398608;32;33734;-78
2021/12/04 02:55:05;;;;;;;;;;;;;;;0.14;58.23;99653.97;4399721;32;35385;-78
2021/12/04 02:57:36;;;;;;;;;;;;;;;0.24;57.68;99648.16;4404389;32;34839;-78
2021/12/04 03:00:04;;;;;;;;;;;;;;;0.21;57.57;99653.53;4421549;32;33098;-77
2021/12/04 03:02:32;;;;;;;;;;;;;;;0.17;57.46;99653.78;4410235;32;34320;-76
2021/12/04 03:05:02;;;;;;;;;;;;;;;0.09;57.67;99654.22;4395639;32;35356;-77
2021/12/04 03:07:29;;;;;;;;;;;;;;;0.15;57.35;99653.91;4395657;32;34579;-78
2021/12/04 03:09:56;;;;;;;;;;;;;;;-0.13;58.69;99659.84;4408595;32;33001;-78
2021/12/04 03:12:24;;;;;;;;;;;;;;;-0.04;58.74;99669.81;4416845;32;33829;-78
2021/12/04 03:14:52;;;;;;;;;;;;;;;-0.04;58.36;99657.56;4390213;32;34019;-77
2021/12/04 03:17:21;;;;;;;;;;;;;;;-0.30;58.48;99660.72;4405639;32;34757;-78
2021/12/04 03:19:52;;;;;;;;;;;;;;;-0.17;58.32;99664.38;4399961;32;33551;-78
2021/12/04 03:22:21;;;;;;;;;;;;;;;-0.44;59.23;99665.84;4414175;32;35018;-78
2021/12/04 03:24:49;;;;;;;;;;;;;;;-0.23;58.95;99654.25;4421966;32;35351;-78
2021/12/04 03:27:18;;;;;;;;;;;;;;;-0.02;58.03;99655.72;4394305;32;34198;-77
2021/12/04 03:30:00;;;;;;;;;;;;;;;-0.09;58.08;99659.59;4393621;32;32800;-77
2021/12/04 03:43:11;;;;;;;;;;;;;;;-0.15;58.23;99614.63;4402596;32;34165;-78
2021/12/04 03:45:41;;;;;;;;;;;;;;;-0.15;57.84;99597.19;4399646;32;35348;-78
2021/12/04 03:48:13;;;;;;;;;;;;;;;-0.13;57.79;99602.34;4418428;32;34095;-78
2021/12/04 03:50:41;;;;;;;;;;;;;;;-0.38;58.75;99600.16;4401318;32;33147;-78
2021/12/04 03:53:08;;;;;;;;;;;;;;;-0.21;58.06;99592.28;4402871;32;33700;-76
2021/12/04 03:55:35;;;;;;;;;;;;;;;-0.18;57.86;99593.88;4386733;32;35015;-78
2021/12/04 03:58:03;;;;;;;;;;;;;;;-0.82;60.38;99596.44;4425962;32;35477;-77
2021/12/04 04:00:30;;;;;;;;;;;;;;;-1.07;61.56;99597.75;4402666;32;33212;-77
2021/12/04 04:02:58;;;;;;;;;;;;;;;-0.66;60.53;99593.88;4402635;32;32664;-78
2021/12/04 04:05:26;;;;;;;;;;;;;;;-0.42;59.23;99596.03;4413138;32;35271;-78
2021/12/04 04:07:54;;;;;;;;;;;;;;;-0.37;58.94;99596.66;4420946;32;34958;-77
2021/12/04 04:10:21;;;;;;;;;;;;;;;-0.50;59.18;99592.97;4400788;32;33897;-78
2021/12/04 04:12:49;;;;;;;;;;;;;;;-0.59;59.41;99590.03;4359182;32;888511;-76
2021/12/04 04:15:16;;;;;;;;;;;;;;;-0.41;58.99;99595.09;4398816;32;33443;-78
2021/12/04 04:17:43;;;;;;;;;;;;;;;-0.36;58.64;99590.50;4376398;32;34276;-76
2021/12/04 04:20:13;;;;;;;;;;;;;;;-0.39;58.35;99582.78;4398619;32;32044;-78
2021/12/04 04:22:40;;;;;;;;;;;;;;;-0.39;58.46;99576.75;4421732;32;33798;-77
2021/12/04 04:25:08;;;;;;;;;;;;;;;-0.51;58.55;99580.84;4413929;32;35132;-77
2021/12/04 04:27:35;;;;;;;;;;;;;;;-0.35;58.21;99579.13;4408229;32;35243;-77
2021/12/04 04:30:06;;;;;;;;;;;;;;;-0.45;58.17;99584.91;4403457;32;32488;-76
2021/12/04 04:32:34;;;;;;;;;;;;;;;-0.75;58.87;99582.13;4406116;32;33881;-77
2021/12/04 04:35:09;;;;;;;;;;;;;;;-0.85;59.40;99588.75;4413250;32;34587;-77
2021/12/04 05:12:53;;;;;;;;;;;;;;;-1.05;59.87;99601.12;4416222;32;32268;-77
2021/12/04 05:15:36;;;;;;;;;;;;;;;-1.04;59.81;99597.59;4402763;32;34934;-78
2021/12/04 05:18:34;;;;;;;;;;;;;;;-1.12;59.93;99594.53;4389948;32;35240;-79
2021/12/04 05:21:07;;;;;;;;;;;;;;;-1.18;60.73;99584.38;4406347;32;34667;-78
2021/12/04 05:23:38;;;;;;;;;;;;;;;-1.08;60.33;99585.62;4408534;32;32554;-78
2021/12/04 05:26:07;;;;;;;;;;;;;;;-0.97;60.07;99581.53;4409564;32;34457;-78
2021/12/04 05:28:34;;;;;;;;;;;;;;;-1.07;60.82;99575.09;4408735;32;35543;-78
2021/12/04 05:31:01;;;;;;;;;;;;;;;-0.72;59.56;99571.53;4397442;32;35205;-78
2021/12/04 05:33:29;;;;;;;;;;;;;;;-1.03;60.17;99579.22;4421167;32;33480;-78
2021/12/04 05:35:57;;;;;;;;;;;;;;;-0.95;59.91;99577.09;4397967;32;34195;-79
2021/12/04 05:38:24;;;;;;;;;;;;;;;-0.95;59.94;99584.09;4423833;32;34924;-77
2021/12/04 05:40:52;;;;;;;;;;;;;;;-0.88;60.08;99586.28;4404351;32;34493;-79
2021/12/04 05:43:22;;;;;;;;;;;;;;;-0.74;59.28;99582.97;4401056;32;32885;-77
2021/12/04 05:46:02;;;;;;;;;;;;;;;-1.13;60.74;99587.63;4405943;32;33063;-77
2021/12/04 05:51:19;;;;;;;;;;;;;;;-0.80;60.24;99570.22;4388455;32;35806;-77
2021/12/04 05:56:17;;;;;;;;;;;;;;;-0.92;60.66;99574.34;4416489;32;33524;-77
2021/12/04 05:58:45;;;;;;;;;;;;;;;-0.76;60.15;99572.59;4415200;32;35723;-78
2021/12/04 06:01:13;;;;;;;;;;;;;;;-0.77;60.20;99573.53;4419794;32;34274;-78
2021/12/04 06:03:41;;;;;;;;;;;;;;;-0.78;59.95;99566.63;4388369;32;32047;-78
2021/12/04 06:06:08;;;;;;;;;;;;;;;-0.80;59.90;99559.78;4414847;32;34420;-78
2021/12/04 06:08:35;;;;;;;;;;;;;;;-0.78;59.73;99564.00;4419278;32;35828;-78
2021/12/04 06:11:03;;;;;;;;;;;;;;;-0.76;59.73;99558.72;4403196;32;32885;-78
2021/12/04 06:13:30;;;;;;;;;;;;;;;-0.82;59.82;99559.03;4403202;32;33590;-78
2021/12/04 06:15:57;;;;;;;;;;;;;;;-0.56;58.58;99561.13;4405615;32;34571;-78
2021/12/04 06:18:25;;;;;;;;;;;;;;;-0.84;58.90;99555.66;4404473;32;35919;-78
2021/12/04 06:23:39;;;;;;;;;;;;;;;-1.12;59.94;99561.44;4413725;32;34360;-78
2021/12/04 06:26:07;;;;;;;;;;;;;;;-1.01;59.52;99563.50;4413405;32;33764;-78
2021/12/04 06:28:34;;;;;;;;;;;;;;;-0.80;58.75;99563.25;4407262;32;34374;-78
2021/12/04 06:31:02;;;;;;;;;;;;;;;-1.01;59.21;99561.75;4405480;32;34798;-77
2021/12/04 06:33:29;;;;;;;;;;;;;;;-1.19;59.60;99567.91;4404170;32;33758;-77
2021/12/04 06:35:57;;;;;;;;;;;;;;;-0.83;58.47;99552.97;4412846;32;33963;-77
2021/12/04 06:38:24;;;;;;;;;;;;;;;-0.86;58.57;99560.94;4413310;32;34880;-77
2021/12/04 06:40:52;;;;;;;;;;;;;;;-0.95;59.17;99564.03;4400967;32;34195;-77
2021/12/04 06:43:20;;;;;;;;;;;;;;;-0.77;58.84;99546.59;4413525;32;34013;-77
2021/12/04 06:45:57;;;;;;;;;;;;;;;-0.99;59.60;99548.59;4403927;32;33793;-78
2021/12/04 06:48:30;;;;;;;;;;;;;;;-1.04;59.80;99553.22;4404441;32;34751;-78
2021/12/04 06:51:04;;;;;;;;;;;;;;;-0.82;59.33;99543.34;4403296;32;34162;-78
2021/12/04 06:56:00;;;;;;;;;;;;;;;-0.61;59.01;99548.28;4413607;32;34141;-78
2021/12/04 06:58:28;;;;;;;;;;;;;;;-0.69;59.16;99549.63;4405205;32;35465;-78
2021/12/04 07:00:57;;;;;;;;;;;;;;;-0.82;59.97;99545.97;4406705;32;34980;-78
2021/12/04 07:03:25;;;;;;;;;;;;;;;-0.78;60.35;99540.50;4390192;32;32315;-77
2021/12/04 07:05:52;;;;;;;;;;;;;;;-0.52;59.57;99539.13;4406285;32;32243;-78
2021/12/04 07:08:20;;;;;;;;;;;;;;;-0.45;59.29;99535.25;4412974;32;34585;-77
2021/12/04 07:10:47;;;;;;;;;;;;;;;-0.35;59.09;99528.59;4410104;32;34614;-77
2021/12/04 07:13:14;;;;;;;;;;;;;;;-0.41;59.38;99531.56;4391850;32;32192;-78
2021/12/04 07:16:01;;;;;;;;;;;;;;;-0.35;59.86;99526.00;4399965;32;33874;-77
2021/12/04 07:18:29;;;;;;;;;;;;;;;-0.53;61.15;99529.59;4394895;32;34664;-77
2021/12/04 07:20:56;;;;;;;;;;;;;;;-0.44;60.96;99524.72;4410424;32;34522;-78
2021/12/04 07:23:23;;;;;;;;;;;;;;;-0.35;60.99;99523.38;4412745;32;32863;-78
2021/12/04 07:25:51;;;;;;;;;;;;;;;-0.24;60.79;99519.25;4413533;32;35373;-77
2021/12/04 07:28:18;;;;;;;;;;;;;;;-0.01;60.19;99516.19;4404567;32;35724;-77
2021/12/04 07:30:46;;;;;;;;;;;;;;;0.05;60.04;99506.25;4408743;32;35733;-77
2021/12/04 07:33:13;;;;;;;;;;;;;;;-0.04;60.81;99497.25;4391581;32;33399;-77
2021/12/04 07:35:40;;;;;;;;;;;;;;;-0.27;62.11;99495.91;4413671;32;33344;-78
2021/12/04 07:38:10;;;;;;;;;;;;;;;-0.11;61.74;99499.34;4407581;32;35363;-78
2021/12/04 07:40:38;;;;;;;;;;;;;;;0.19;60.86;99498.47;4407733;32;34418;-77
2021/12/04 07:43:05;;;;;;;;;;;;;;;-0.07;61.75;99496.47;4396365;32;33305;-77
2021/12/04 07:45:32;;;;;;;;;;;;;;;0.21;60.80;99483.50;4413589;32;33978;-78
2021/12/04 07:48:00;;;;;;;;;;;;;;;0.38;60.18;99486.00;4403288;32;33543;-77
2021/12/04 07:50:29;;;;;;;;;;;;;;;0.34;60.66;99486.28;4402330;32;35059;-77
2021/12/04 07:52:58;;;;;;;;;;;;;;;0.52;60.25;99478.22;4413208;32;33169;-77
2021/12/04 07:55:26;;;;;;;;;;;;;;;0.81;59.42;99477.34;4406056;32;33807;-76
2021/12/04 07:57:57;;;;;;;;;;;;;;;0.71;59.77;99476.19;4407895;32;36168;-78
2021/12/04 08:00:24;;;;;;;;;;;;;;;1.04;59.27;99479.38;4412423;32;35102;-78
2021/12/04 08:02:52;;;;;;;;;;;;;;;1.09;59.34;99490.44;4403894;32;34149;-77
2021/12/04 08:05:19;;;;;;;;;;;;;;;1.11;59.96;99493.81;4391814;32;32618;-78
2021/12/04 08:07:47;;;;;;;;;;;;;;;1.29;59.24;99490.06;4406067;32;35876;-77
2021/12/04 08:10:15;;;;;;;;;;;;;;;1.46;58.82;99484.63;4412391;32;33567;-78
2021/12/04 08:12:43;;;;;;;;;;;;;;;1.44;58.83;99483.88;4404249;32;33816;-77
2021/12/04 08:15:10;;;;;;;;;;;;;;;1.51;58.79;99481.72;4391371;32;34501;-78
2021/12/04 08:17:38;;;;;;;;;;;;;;;1.73;58.64;99482.03;4401393;32;33897;-78
2021/12/04 08:20:06;;;;;;;;;;;;;;;1.94;57.96;99485.91;4389705;32;34412;-77
2021/12/04 08:22:34;;;;;;;;;;;;;;;1.96;57.92;99479.62;4411942;32;33059;-77
2021/12/04 08:25:03;;;;;;;;;;;;;;;1.98;58.00;99479.56;4417494;32;34220;-77
2021/12/04 08:27:30;;;;;;;;;;;;;;;1.90;59.02;99481.81;4400089;32;36197;-77
2021/12/04 08:29:57;;;;;;;;;;;;;;;2.34;57.88;99485.03;4404946;32;35277;-78
2021/12/04 08:32:25;;;;;;;;;;;;;;;2.35;57.45;99477.03;4412558;32;34077;-80
2021/12/04 08:34:52;;;;;;;;;;;;;;;2.26;58.22;99482.06;4395778;32;34322;-78
2021/12/04 08:37:20;;;;;;;;;;;;;;;2.35;58.48;99477.03;4391877;32;35252;-78
2021/12/04 08:39:49;;;;;;;;;;;;;;;2.99;56.65;99475.25;4403173;32;34190;-78
2021/12/04 08:42:16;;;;;;;;;;;;;;;2.87;55.95;99467.37;4404069;32;31847;-78
2021/12/04 08:44:44;;;;;;;;;;;;;;;2.95;56.40;99462.44;4412863;32;34871;-78
2021/12/04 08:47:11;;;;;;;;;;;;;;;2.79;56.76;99467.03;4411956;32;34508;-79
2021/12/04 08:49:39;;;;;;;;;;;;;;;2.34;58.49;99469.28;4413669;32;34529;-78
2021/12/04 08:52:07;;;;;;;;;;;;;;;2.50;58.44;99456.81;4403466;32;32782;-79
2021/12/04 08:54:36;;;;;;;;;;;;;;;2.56;58.15;99465.13;4403024;32;33967;-78
2021/12/04 08:57:03;;;;;;;;;;;;;;;2.90;57.68;99461.91;4407608;32;35205;-80
2021/12/04 08:59:33;;;;;;;;;;;;;;;3.06;57.32;99460.72;4404232;32;34375;-80
2021/12/04 09:02:00;;;;;;;;;;;;;;;3.15;56.88;99461.91;4408901;32;32769;-79
2021/12/04 09:04:30;;;;;;;;;;;;;;;3.21;56.72;99461.50;4403598;32;34189;-78
2021/12/04 09:06:58;;;;;;;;;;;;;;;3.07;57.76;99456.31;4401725;32;35304;-79
2021/12/04 09:09:28;;;;;;;;;;;;;;;2.77;58.85;99455.81;4392530;32;35145;-78
2021/12/04 09:12:15;;;;;;;;;;;;;;;2.82;59.79;99453.69;4397605;32;33962;-79
2021/12/04 09:14:43;;;;;;;;;;;;;;;3.04;59.36;99452.13;4394447;32;34656;-79
2021/12/04 09:17:11;;;;;;;;;;;;;;;2.94;59.64;99443.19;4387852;32;35252;-78
2021/12/04 09:19:39;;;;;;;;;;;;;;;3.22;59.74;99442.13;4415059;32;35248;-78
2021/12/04 09:22:07;;;;;;;;;;;;;;;3.50;59.18;99433.97;4405901;32;33473;-78
2021/12/04 09:24:57;;;;;;;;;;;;;;;3.78;58.36;99425.78;4410708;32;33052;-79
2021/12/04 09:30:09;;;;;;;;;;;;;;;3.89;57.74;99420.59;4418804;32;33343;-79
2021/12/04 10:19:11;;;;;;;;;;;;;;;4.35;53.30;99335.44;4414169;32;32683;-78
2021/12/04 10:21:50;;;;;;;;;;;;;;;4.17;53.74;99333.38;4428133;32;36562;-79
2021/12/04 10:35:07;;;;;;;;;;;;;;;3.74;52.16;99322.56;4401717;32;34771;-79
2021/12/04 10:37:44;;;;;;;;;;;;;;;4.07;53.27;99321.84;4428501;32;33297;-80
2021/12/04 10:40:11;;;;;;;;;;;;;;;4.15;54.04;99303.69;4413516;32;34269;-79
2021/12/04 10:42:45;;;;;;;;;;;;;;;4.29;52.21;99298.19;4413952;32;35197;-79
2021/12/04 10:45:12;;;;;;;;;;;;;;;4.05;53.20;99305.34;4414424;32;33676;-79
2021/12/04 10:47:50;;;;;;;;;;;;;;;4.54;52.42;99290.09;4401013;32;33231;-78
2021/12/04 10:50:36;;;;;;;;;;;;;;;4.51;51.48;99288.53;4415388;32;32606;-78
2021/12/04 10:53:10;;;;;;;;;;;;;;;4.57;51.06;99280.16;4414104;32;35014;-79
2021/12/04 11:28:22;;;;;;;;;;;;;;;4.20;49.04;99239.22;4416474;32;33889;-79
2021/12/04 11:36:33;;;;;;;;;;;;;;;4.24;48.53;99211.69;4428014;32;35801;-79
2021/12/04 11:44:34;;;;;;;;;;;;;;;4.88;46.34;99197.72;4414469;32;34127;-80
2021/12/04 11:47:02;;;;;;;;;;;;;;;4.46;47.58;99189.78;4414790;32;34712;-79
2021/12/04 11:49:33;;;;;;;;;;;;;;;4.64;46.66;99196.22;4401700;32;34712;-79
2021/12/04 11:52:02;;;;;;;;;;;;;;;4.76;46.36;99184.69;4414574;32;32910;-79
2021/12/04 11:54:53;;;;;;;;;;;;;;;4.78;46.91;99182.78;4414309;32;34313;-79
2021/12/04 11:57:27;;;;;;;;;;;;;;;4.62;47.54;99185.78;4423659;32;34633;-78
2021/12/04 11:59:54;;;;;;;;;;;;;;;5.06;45.91;99187.50;4427541;32;34718;-78
2021/12/04 12:02:23;;;;;;;;;;;;;;;5.15;45.48;99181.47;4412643;32;33087;-78
2021/12/04 12:04:52;;;;;;;;;;;;;;;5.24;45.23;99172.81;4413143;32;33718;-78
2021/12/04 12:07:23;;;;;;;;;;;;;;;5.02;46.56;99173.75;4413277;32;34345;-78
2021/12/04 12:10:03;;;;;;;;;;;;;;;5.01;45.71;99169.41;4426599;32;34530;-78
2021/12/04 12:12:36;;;;;;;;;;;;;;;5.26;45.59;99176.19;4424743;32;34138;-78
2021/12/04 12:15:27;;;;;;;;;;;;;;;5.46;44.72;99178.00;4404263;32;34953;-78
2021/12/04 12:17:55;;;;;;;;;;;;;;;5.59;44.34;99167.12;4393404;32;35268;-78
2021/12/04 12:20:29;;;;;;;;;;;;;;;5.74;44.56;99170.28;4403872;32;35554;-79
2021/12/04 12:23:04;;;;;;;;;;;;;;;5.46;44.40;99162.19;4387951;32;30727;-79
2021/12/04 12:34:11;;;;;;;;;;;;;;;5.07;46.27;99161.00;4407453;32;34169;-79
2021/12/04 12:36:39;;;;;;;;;;;;;;;4.74;46.14;99162.91;4400685;32;34467;-78
2021/12/04 12:39:07;;;;;;;;;;;;;;;5.61;43.51;99151.16;4411470;32;34647;-79
2021/12/04 12:41:38;;;;;;;;;;;;;;;5.60;44.32;99137.13;4411481;32;33936;-78
2021/12/04 12:44:18;;;;;;;;;;;;;;;5.65;44.91;99140.22;4416084;32;33320;-79
2021/12/04 12:46:48;;;;;;;;;;;;;;;5.58;45.16;99140.88;4412939;32;34681;-80
2021/12/04 12:49:18;;;;;;;;;;;;;;;5.70;44.89;99137.19;4411423;32;34855;-79
2021/12/04 12:51:51;;;;;;;;;;;;;;;5.57;47.28;99133.91;4411686;32;34541;-79
2021/12/04 12:54:39;;;;;;;;;;;;;;;6.11;44.83;99139.81;4389064;32;32847;-79
2021/12/04 12:57:09;;;;;;;;;;;;;;;6.28;44.20;99134.75;4403996;32;33375;-80
2021/12/04 13:11:35;;;;;;;;;;;;;;;6.15;44.53;99126.19;4386880;32;33722;-78
2021/12/04 13:13:51;;;;;;;;;;;;;;;6.00;45.82;99132.81;4414222;32;34722;-79
2021/12/04 13:16:20;;;;;;;;;;;;;;;6.06;46.09;99123.53;4419494;32;32776;-79
2021/12/04 13:18:56;;;;;;;;;;;;;;;6.27;45.81;99126.94;4406210;32;33473;-79
2021/12/04 13:21:25;;;;;;;;;;;;;;;6.33;45.65;99124.59;4386379;32;36062;-79
2021/12/04 13:23:53;;;;;;;;;;;;;;;6.30;44.94;99124.87;4390605;32;34666;-79
2021/12/04 13:26:27;;;;;;;;;;;;;;;6.33;45.08;99127.25;4414824;32;32848;-78
2021/12/04 13:28:55;;;;;;;;;;;;;;;6.78;44.51;99124.97;4414472;32;34787;-78
2021/12/04 13:31:22;;;;;;;;;;;;;;;7.09;43.90;99118.63;4412056;32;34319;-78
2021/12/04 13:33:50;;;;;;;;;;;;;;;7.23;43.77;99121.69;4399135;32;32858;-79
2021/12/04 13:36:19;;;;;;;;;;;;;;;7.50;43.04;99111.22;4399412;32;33685;-78
2021/12/04 13:38:47;;;;;;;;;;;;;;;7.18;43.42;99102.75;4379227;32;34014;-78
2021/12/04 13:41:14;;;;;;;;;;;;;;;7.16;43.55;99102.06;4394046;32;35169;-79
2021/12/04 13:43:48;;;;;;;;;;;;;;;7.00;43.96;99104.41;4414350;32;34112;-80
2021/12/04 13:46:16;;;;;;;;;;;;;;;7.06;44.04;99095.09;4408215;32;33844;-78
2021/12/04 13:48:43;;;;;;;;;;;;;;;7.30;43.79;99093.72;4398181;32;34201;-78
2021/12/04 13:51:11;;;;;;;;;;;;;;;7.48;43.83;99093.81;4422301;32;36834;-79
2021/12/04 13:53:40;;;;;;;;;;;;;;;7.87;41.98;99085.66;4423004;32;34848;-78
2021/12/04 13:56:08;;;;;;;;;;;;;;;7.57;42.99;99071.78;4424318;32;32662;-79
2021/12/04 13:58:46;;;;;;;;;;;;;;;7.42;43.21;99065.25;4408224;32;33391;-79
2021/12/04 14:01:14;;;;;;;;;;;;;;;7.39;43.31;99066.41;4400273;32;35929;-80
2021/12/04 14:03:42;;;;;;;;;;;;;;;7.20;43.13;99061.16;4394536;32;35046;-78
2021/12/04 14:06:11;;;;;;;;;;;;;;;6.87;44.23;99031.63;4389373;32;32498;-79
2021/12/04 14:08:39;;;;;;;;;;;;;;;6.27;44.85;99030.06;4391408;32;33364;-78
2021/12/04 14:11:12;;;;;;;;;;;;;;;6.18;44.95;99025.59;4404122;32;33681;-80
2021/12/04 14:13:43;;;;;;;;;;;;;;;6.21;44.79;99027.13;4391333;32;34590;-78
2021/12/04 14:16:44;;;;;;;;;;;;;;;5.58;45.42;99024.81;4391937;32;32178;-80
2021/12/04 14:19:15;;;;;;;;;;;;;;;5.47;45.07;99024.03;4399349;32;35054;-79
2021/12/04 14:22:02;;;;;;;;;;;;;;;5.38;45.15;99014.28;4412563;32;35304;-79
2021/12/04 14:24:36;;;;;;;;;;;;;;;5.52;44.66;99020.84;4412920;32;35223;-79
2021/12/04 14:27:05;;;;;;;;;;;;;;;5.29;44.40;99018.50;4410780;32;31661;-78
2021/12/04 14:29:34;;;;;;;;;;;;;;;5.13;45.33;99030.50;4405261;32;33225;-79
2021/12/04 14:32:02;;;;;;;;;;;;;;;4.71;46.46;99032.25;4413112;32;35203;-78
2021/12/04 14:34:30;;;;;;;;;;;;;;;4.65;46.82;99030.16;4413091;32;34324;-79
2021/12/04 14:37:02;;;;;;;;;;;;;;;4.66;46.77;99037.09;4412828;32;33874;-79
2021/12/04 14:39:31;;;;;;;;;;;;;;;4.66;47.37;99042.34;4413425;32;34626;-79
2021/12/04 14:41:58;;;;;;;;;;;;;;;4.54;47.73;99038.06;4399478;32;35319;-79
2021/12/04 14:44:25;;;;;;;;;;;;;;;4.19;48.86;99034.84;4411933;32;34986;-78
2021/12/04 14:46:53;;;;;;;;;;;;;;;4.32;48.91;99035.50;4404285;32;33382;-79
2021/12/04 14:49:21;;;;;;;;;;;;;;;4.21;49.41;99029.44;4412212;32;34292;-79
2021/12/04 14:51:49;;;;;;;;;;;;;;;4.23;49.61;99025.72;4411022;32;35118;-79
2021/12/04 14:54:26;;;;;;;;;;;;;;;4.40;49.06;99030.47;4411541;32;35594;-78
2021/12/04 14:56:54;;;;;;;;;;;;;;;4.10;50.08;99024.19;4413225;32;32587;-78
2021/12/04 14:59:22;;;;;;;;;;;;;;;3.89;50.71;99032.00;4411486;32;32783;-78
2021/12/04 15:04:15;;;;;;;;;;;;;;;4.18;50.24;99027.91;4447493;26;34929;-78
2021/12/04 15:06:44;;;;;;;;;;;;;;;4.03;50.82;99021.22;4446787;32;33554;-79
2021/12/04 15:09:28;;;;;;;;;;;;;;;4.38;49.95;99035.03;4430570;32;33808;-79
2021/12/04 15:12:22;;;;;;;;;;;;;;;4.31;50.25;99033.84;4415524;32;35363;-79
2021/12/04 15:14:56;;;;;;;;;;;;;;;4.29;50.16;99038.41;4427104;32;35339;-79
2021/12/04 15:17:26;;;;;;;;;;;;;;;4.42;49.97;99036.44;4416189;32;34006;-80
2021/12/04 15:19:59;;;;;;;;;;;;;;;4.31;50.35;99043.53;4428445;32;34875;-79
2021/12/04 15:22:35;;;;;;;;;;;;;;;4.12;50.97;99048.59;4426866;32;34765;-80
2021/12/04 15:25:10;;;;;;;;;;;;;;;4.05;51.42;99057.97;4411544;32;34509;-79
2021/12/04 15:27:39;;;;;;;;;;;;;;;4.12;51.29;99056.50;4425729;32;32462;-79
2021/12/04 16:11:51;;;;;;;;;;;;;;;3.78;52.75;99047.78;4326084;33;34173;-79
2021/12/04 16:15:03;;;;;;;;;;;;;;;3.47;53.43;99035.38;4338747;32;34950;-80
2021/12/04 16:32:28;;;;;;;;;;;;;;;;;;;;;
2021/12/04 16:39:25;;;;;;;;;;;;;;;2.27;58.24;99042.88;4408675;32;34890;-78
2021/12/04 16:43:01;;;;;;;;;;;;;;;;;;;;;
2021/12/04 16:46:20;;;;;;;;;;;;;;;1.91;60.68;99038.50;4369867;32;34288;-79
2021/12/04 16:57:34;;;;;;;;;;;;;;;1.70;62.09;99039.16;4265986;33;34374;-79
2021/12/04 17:00:59;;;;;;;;;;;;;;;1.96;62.17;99023.25;4296402;33;33789;-79
2021/12/04 17:08:42;;;;;;;;;;;;;;;1.75;62.85;99019.53;4314331;33;34458;-78
2021/12/04 17:15:48;;;;;;;;;;;;;;;1.66;62.88;99032.44;4280055;33;35823;-79
2021/12/04 17:19:19;;;;;;;;;;;;;;;1.74;63.09;99027.50;4280869;33;34868;-78
2021/12/04 17:22:17;;;;;;;;;;;;;;;1.70;63.52;99039.97;4265701;33;35002;-78
2021/12/04 17:25:45;;;;;;;;;;;;;;;1.89;63.14;99026.44;4280841;33;34888;-79
2021/12/04 17:29:23;;;;;;;;;;;;;;;1.89;63.35;99027.25;4297176;33;35348;-79
2021/12/04 17:47:25;;;;;;;;;;;;;;;1.81;64.22;99024.31;4424743;32;34579;-79
2021/12/04 17:53:50;;;;;;;;;;;;;;;2.16;63.57;99016.56;4452552;32;34010;-78
2021/12/04 17:57:47;;;;;;;;;;;;;;;2.27;63.35;99006.12;4408155;32;33936;-79
2021/12/04 18:01:02;;;;;;;;;;;;;;;;;;;;;
2021/12/04 18:11:07;;;;;;;;;;;;;;;2.09;64.81;99010.94;4400071;32;36084;-79
2021/12/04 18:18:36;;;;;;;;;;;;;;;2.08;64.97;98998.75;4381175;32;34011;-80
2021/12/04 18:26:13;;;;;;;;;;;;;;;2.42;64.44;98994.50;4356502;32;34553;-80
2021/12/04 18:29:52;;;;;;;;;;;;;;;2.29;64.96;98978.00;4366644;32;33705;-79
2021/12/04 18:37:34;;;;;;;;;;;;;;;;;;;;;
2021/12/04 18:50:22;;;;;;;;;;;;;;;2.67;64.16;98968.09;4397518;32;34077;-79
2021/12/04 19:00:16;;;;;;;;;;;;;;;2.99;63.37;98969.97;4453311;32;32882;-78